• Join FlightAware (Why Join?)
  • Login
  • US Flag 
09:20AM EDT


 

Airport Tracker/Info


-or-


 

Live Flight TrackerFlight Track Log ✈ EJA914 ✈ 06-May-2013 ✈ KBGR - EGGD / BRS

Flight Track Log - Related Links

Times and Time Zones

All times are in EDT time to prevent confusion due to time zone crossing. See the EJA914 flight status page for this flight to view local times or setup timezone preferences in your user account.

Time Position Orientation Groundspeed Altitude Reporting Facility
EDT Latitude Longitude Course Direction KTS MPH feet Rate Location/Type
08:19AM 44.8500 -68.7167 31° Northeast 240 276 7,700  Level Moncton Center
08:20AM 44.9167 -68.6500 35° Northeast 260 299 9,800 1,260 Climbing Moncton Center
08:21AM 45.0364 -68.5769 23° Northeast 437 503 10,400 1,200 Climbing Boston Center
08:22AM 45.1336 -68.4969 30° Northeast 414 476 12,300 2,040 Climbing Boston Center
08:23AM 45.2292 -68.4197 30° Northeast 397 457 14,500 2,580 Climbing Boston Center
08:24AM 45.4989 -68.2365 30° Northeast  Level FlightAware Approximate
08:24AM 45.3244 -68.3453 29° Northeast 392 451 17,500  Level Boston Center
08:25AM 45.6158 -68.1383 31° Northeast  Level FlightAware Approximate
08:25AM 45.4217 -68.2672 29° Northeast 387 445 19,200  Level Boston Center
08:26AM 45.5208 -68.1861 30° Northeast 393 452 21,100 1,860 Climbing Boston Center
08:27AM 45.6167 -68.1000 32° Northeast 420 483 22,900 1,740 Climbing Moncton Center
08:28AM 45.7247 -68.0103 30° Northeast 418 481 24,600 1,740 Climbing Boston Center
08:29AM 45.8317 -67.9214 30° Northeast 430 495 26,600 1,500 Climbing Boston Center
08:31AM 45.9754 -67.8349 32° Northeast  Level FlightAware Approximate
08:31AM 46.0558 -67.7419 32° Northeast 449 517 29,200  Level Boston Center
08:32AM 46.1706 -67.6425 31° Northeast 466 536 30,800 1,980 Climbing Boston Center
08:33AM 46.2667 -67.5500 34° Northeast 480 552 33,100 2,220 Climbing Moncton Center
08:34AM 46.3833 -67.4500 31° Northeast 470 541 35,100 1,980 Climbing Moncton Center
08:35AM 46.5000 -67.3667 26° Northeast 470 541 37,100 1,920 Climbing Moncton Center
08:36AM 46.6167 -67.2667 30° Northeast 450 518 39,000 1,800 Climbing Moncton Center
08:37AM 46.7167 -67.1833 30° Northeast 440 506 40,700 960 Climbing Moncton Center
08:38AM 46.8167 -67.0833 34° Northeast 440 506 41,000 120 Climbing Moncton Center
08:39AM 46.9000 -66.9500 48° Northeast 460 529 41,000  Level Moncton Center
08:40AM 46.9667 -66.7833 60° Northeast 470 541 41,000  Level Moncton Center
08:41AM 47.0500 -66.6000 56° Northeast 470 541 41,000  Level Moncton Center
08:42AM 47.1000 -66.4333 66° East 470 541 41,000  Level Moncton Center
08:43AM 47.1667 -66.2667 59° Northeast 470 541 41,000  Level Moncton Center
08:44AM 47.2333 -66.1167 57° Northeast 460 529 41,000  Level Moncton Center
08:45AM 47.2833 -65.9500 66° East 460 529 41,000  Level Moncton Center
08:46AM 47.3500 -65.7833 59° Northeast 450 518 41,000  Level Moncton Center
08:47AM 47.4333 -65.6333 51° Northeast 450 518 41,000  Level Moncton Center
08:48AM 47.4833 -65.4667 66° East 450 518 41,000  Level Moncton Center
08:50AM 47.6000 -65.1500 61° Northeast 470 541 41,000  Level Gander Center
08:51AM 47.6667 -64.9500 64° Northeast 470 541 41,000  Level Moncton Center
08:52AM 47.7333 -64.8000 57° Northeast 480 552 41,000  Level Moncton Center
08:54AM 47.8500 -64.4500 63° Northeast 470 541 41,000  Level Gander Center
08:55AM 47.9167 -64.3000 56° Northeast 470 541 41,000  Level Gander Center
08:56AM 47.9833 -64.1333 59° Northeast 470 541 41,000  Level Gander Center
08:57AM 48.0500 -63.9500 61° Northeast 470 541 41,000  Level Gander Center
08:58AM 48.1000 -63.7667 68° East 460 529 41,000  Level Gander Center
08:59AM 48.1500 -63.6167 63° Northeast 470 541 41,000  Level Gander Center
09:00AM 48.2333 -63.4333 56° Northeast 450 518 41,000  Level Gander Center
09:01AM 48.3000 -63.2667 59° Northeast 470 541 41,000  Level Gander Center
09:02AM 48.3667 -63.0667 63° Northeast 460 529 41,000  Level Moncton Center
09:03AM 48.4167 -62.9167 63° Northeast 470 541 41,000  Level Moncton Center
09:04AM 48.4667 -62.7500 66° East 480 552 41,000  Level Gander Center
09:05AM 48.5167 -62.5667 68° East 470 541 41,000  Level Gander Center
09:06AM 48.6000 -62.4000 53° Northeast 470 541 41,000  Level Gander Center
09:07AM 48.6667 -62.1833 65° Northeast 480 552 41,000  Level Moncton Center
09:09AM 48.7833 -61.8333 63° Northeast 490 564 41,000  Level Gander Center
09:11AM 48.9000 -61.4667 64° Northeast 490 564 41,000  Level Gander Center
09:12AM 48.9500 -61.2833 67° East 490 564 41,000  Level Gander Center
09:13AM 49.0167 -61.1000 61° Northeast 490 564 41,000  Level Gander Center
09:14AM 49.0833 -60.9000 63° Northeast 490 564 41,000  Level Gander Center
09:15AM 49.1333 -60.7167 67° East 490 564 41,000  Level Gander Center
09:16AM 49.2000 -60.5333 61° Northeast 490 564 41,000  Level Gander Center
09:17AM 49.2500 -60.3667 65° Northeast 490 564 41,000  Level Gander Center
09:19AM 49.3667 -59.9500 67° East 480 552 41,000  Level Moncton Center
09:21AM 49.4416 -59.7203 63° Northeast  Level FlightAware Approximate
09:21AM 49.4833 -59.6167 63° Northeast 480 552 41,000  Level Gander Center
09:22AM 49.5333 -59.4333 67° East 480 552 41,000  Level Gander Center
09:23AM 49.6000 -59.2167 65° Northeast 480 552 41,000  Level Gander Center
09:24AM 49.6667 -59.0333 61° Northeast 480 552 41,000  Level Gander Center
09:25AM 49.7167 -58.8500 67° East 480 552 41,000  Level Gander Center
09:26AM 49.7667 -58.6667 67° East 490 564 41,000  Level Gander Center
09:28AM 49.8447 -58.4271 66° East  Level FlightAware Approximate
09:28AM 49.8833 -58.2667 66° East 490 564 41,000  Level Gander Center
09:30AM 50.0000 -57.9000 64° Northeast 490 564 41,000  Level Gander Center
09:32AM 50.1000 -57.5000 69° East 480 552 41,000  Level Gander Center
09:33AM 50.1667 -57.3167 60° Northeast 490 564 41,000  Level Gander Center
09:34AM 50.2333 -57.1000 64° Northeast 490 564 41,000  Level Gander Center
09:35AM 50.2667 -56.9333 73° East 490 564 41,000  Level Gander Center
09:36AM 50.3333 -56.7167 64° Northeast 490 564 41,000  Level Gander Center
09:37AM 50.3833 -56.5333 67° East 490 564 41,000  Level Gander Center
09:38AM 50.4500 -56.3500 60° Northeast 490 564 41,000  Level Gander Center
09:40AM 50.5500 -55.9333 69° East 500 575 41,000  Level Gander Center
09:41AM 50.6000 -55.7167 70° East 500 575 41,000  Level Gander Center
09:42AM 50.6667 -55.5333 60° Northeast 500 575 41,000  Level Gander Center
09:44AM 50.7833 -55.1167 66° East 500 575 41,000  Level Gander Center
09:45AM 50.8333 -54.9167 68° East 490 564 41,000  Level Moncton Center
09:46AM 50.8667 -54.7333 74° East 490 564 41,000  Level Moncton Center
09:47AM 50.9333 -54.5000 66° East 500 575 41,000  Level Moncton Center
09:48AM 50.9833 -54.3167 67° East 500 575 41,000  Level Gander Center
09:49AM 51.0333 -54.1167 68° East 490 564 41,000  Level Gander Center
09:50AM 51.0833 -53.9000 70° East 490 564 41,000  Level Gander Center
09:51AM 51.1333 -53.7000 68° East 490 564 41,000  Level Gander Center
09:52AM 51.1833 -53.5167 66° East 500 575 41,000  Level Gander Center
09:53AM 51.2333 -53.2833 71° East 500 575 41,000  Level Gander Center
09:54AM 51.2833 -53.0500 71° East 500 575 41,000  Level Moncton Center
09:55AM 51.3333 -52.8667 66° East 500 575 41,000  Level Gander Center
09:57AM 51.4500 -52.4333 66° East 500 575 41,000  Level Gander Center
09:58AM 51.4833 -52.2500 74° East 500 575 41,000  Level Gander Center
09:59AM 51.5333 -52.0500 68° East 500 575 41,000  Level Gander Center
10:01AM 51.5948 -51.7766 70° East  Level FlightAware Approximate
10:01AM 51.6333 -51.6167 70° East 510 587 41,000  Level Gander Center
10:02AM 51.6833 -51.4167 68° East 500 575 41,000  Level Gander Center
10:04AM 51.7334 -51.1590 69° East  Level FlightAware Approximate
10:04AM 51.7667 -51.0000 69° East 500 575 41,000  Level Gander Center
10:05AM 51.8000 -50.7667 77° East 500 575 41,000  Level Gander Center
10:06AM 51.8500 -50.5667 68° East 500 575 41,000  Level Gander Center
10:07AM 51.9000 -50.3667 68° East 500 575 41,000  Level Gander Center
10:10AM 51.9705 -50.1087 66° East  Level FlightAware Approximate
10:12AM 52.0000 -50.0000 77° East 504 580 41,000  Level ETMS Enhanced Traffic Management System
10:17AM 52.1930 -48.6087 77° East  Level FlightAware Approximate
10:18AM 52.2214 -48.3924 78° East  Level FlightAware Approximate
10:19AM 52.3008 -47.7700 78° East 504 580 41,000  Level FlightAware Transoceanic
10:20AM 52.3285 -47.5454 79° East 504 580 41,000  Level FlightAware Transoceanic
10:21AM 52.3558 -47.3205 79° East 504 580 41,000  Level FlightAware Transoceanic
10:22AM 52.3827 -47.0953 79° East 504 580 41,000  Level FlightAware Transoceanic
10:23AM 52.4092 -46.8699 79° East 504 580 41,000  Level FlightAware Transoceanic
10:24AM 52.4352 -46.6442 79° East 504 580 41,000  Level FlightAware Transoceanic
10:25AM 52.4609 -46.4182 80° East 504 580 41,000  Level FlightAware Transoceanic
10:26AM 52.4860 -46.1920 80° East 504 580 41,000  Level FlightAware Transoceanic
10:27AM 52.5108 -45.9655 80° East 504 580 41,000  Level FlightAware Transoceanic
10:28AM 52.5351 -45.7387 80° East 504 580 41,000  Level FlightAware Transoceanic
10:29AM 52.5590 -45.5117 80° East 504 580 41,000  Level FlightAware Transoceanic
10:30AM 52.5824 -45.2845 80° East 504 580 41,000  Level FlightAware Transoceanic
10:31AM 52.6054 -45.0570 81° East 504 580 41,000  Level FlightAware Transoceanic
10:32AM 52.6280 -44.8293 81° East 504 580 41,000  Level FlightAware Transoceanic
10:33AM 52.6502 -44.6013 81° East 504 580 41,000  Level FlightAware Transoceanic
10:34AM 52.6718 -44.3732 81° East 504 580 41,000  Level FlightAware Transoceanic
10:35AM 52.6931 -44.1447 81° East 504 580 41,000  Level FlightAware Transoceanic
10:36AM 52.7139 -43.9161 82° East 504 580 41,000  Level FlightAware Transoceanic
10:37AM 52.7343 -43.6873 82° East 504 580 41,000  Level FlightAware Transoceanic
10:38AM 52.7542 -43.4582 82° East 504 580 41,000  Level FlightAware Transoceanic
10:39AM 52.7738 -43.2290 82° East 504 580 41,000  Level FlightAware Transoceanic
10:40AM 52.7928 -42.9995 82° East 504 580 41,000  Level FlightAware Transoceanic
10:41AM 52.8114 -42.7698 82° East 504 580 41,000  Level FlightAware Transoceanic
10:42AM 52.8296 -42.5400 83° East 504 580 41,000  Level FlightAware Transoceanic
10:43AM 52.8473 -42.3099 83° East 504 580 41,000  Level FlightAware Transoceanic
10:44AM 52.8646 -42.0797 83° East 504 580 41,000  Level FlightAware Transoceanic
10:45AM 52.8814 -41.8493 83° East 504 580 41,000  Level FlightAware Transoceanic
10:46AM 52.8978 -41.6187 83° East 504 580 41,000  Level FlightAware Transoceanic
10:47AM 52.9138 -41.3879 84° East 504 580 41,000  Level FlightAware Transoceanic
10:48AM 52.9293 -41.1570 84° East 504 580 41,000  Level FlightAware Transoceanic
10:49AM 52.9443 -40.9259 84° East 504 580 41,000  Level FlightAware Transoceanic
10:50AM 52.9589 -40.6947 84° East 504 580 41,000  Level FlightAware Transoceanic
10:51AM 52.9730 -40.4632 84° East 504 580 41,000  Level FlightAware Transoceanic
10:52AM 52.9868 -40.2317 84° East 504 580 41,000  Level FlightAware Transoceanic
10:53AM 52.9996 -40.0075 84° East  Level FlightAware Approximate
10:54AM 53.0120 -39.7831 85° East  Level FlightAware Approximate
10:55AM 53.0076 -39.7901 86° East  Level FlightAware Approximate
10:56AM 53.0154 -39.5652 87° East  Level FlightAware Approximate
10:57AM 53.0227 -39.3401 87° East  Level FlightAware Approximate
10:58AM 53.0296 -39.1150 87° East  Level FlightAware Approximate
10:58AM 53.0000 -40.0000 76° East 493 567 41,000  Level ETMS Enhanced Traffic Management System
10:59AM 53.0361 -38.8898 87° East  Level FlightAware Approximate
11:00AM 53.0422 -38.6646 87° East  Level FlightAware Approximate
11:01AM 53.0478 -38.4393 88° East  Level FlightAware Approximate
11:02AM 53.0530 -38.2139 88° East  Level FlightAware Approximate
11:03AM 53.0578 -37.9885 88° East  Level FlightAware Approximate
11:04AM 53.3277 -37.5471 78° East 493 567 41,000  Level FlightAware Transoceanic
11:05AM 53.3550 -37.3223 79° East 493 567 41,000  Level FlightAware Transoceanic
11:06AM 53.3819 -37.0971 79° East 493 567 41,000  Level FlightAware Transoceanic
11:07AM 53.4083 -36.8718 79° East 493 567 41,000  Level FlightAware Transoceanic
11:08AM 53.4343 -36.6461 79° East 493 567 41,000  Level FlightAware Transoceanic
11:09AM 53.4599 -36.4202 79° East 493 567 41,000  Level FlightAware Transoceanic
11:10AM 53.4850 -36.1940 80° East 493 567 41,000  Level FlightAware Transoceanic
11:11AM 53.5098 -35.9675 80° East 493 567 41,000  Level FlightAware Transoceanic
11:12AM 53.5341 -35.7408 80° East 493 567 41,000  Level FlightAware Transoceanic
11:13AM 53.5579 -35.5138 80° East 493 567 41,000  Level FlightAware Transoceanic
11:14AM 53.5814 -35.2866 80° East 493 567 41,000  Level FlightAware Transoceanic
11:15AM 53.6044 -35.0591 80° East 493 567 41,000  Level FlightAware Transoceanic
11:16AM 53.6269 -34.8314 81° East 493 567 41,000  Level FlightAware Transoceanic
11:17AM 53.6491 -34.6034 81° East 493 567 41,000  Level FlightAware Transoceanic
11:18AM 53.6708 -34.3752 81° East 493 567 41,000  Level FlightAware Transoceanic
11:19AM 53.6921 -34.1468 81° East 493 567 41,000  Level FlightAware Transoceanic
11:20AM 53.7129 -33.9181 81° East 493 567 41,000  Level FlightAware Transoceanic
11:21AM 53.7333 -33.6892 82° East 493 567 41,000  Level FlightAware Transoceanic
11:22AM 53.7533 -33.4601 82° East 493 567 41,000  Level FlightAware Transoceanic
11:23AM 53.7728 -33.2307 82° East 493 567 41,000  Level FlightAware Transoceanic
11:24AM 53.7919 -33.0012 82° East 493 567 41,000  Level FlightAware Transoceanic
11:25AM 53.8106 -32.7715 82° East 493 567 41,000  Level FlightAware Transoceanic
11:26AM 53.8288 -32.5415 82° East 493 567 41,000  Level FlightAware Transoceanic
11:27AM 53.8466 -32.3114 83° East 493 567 41,000  Level FlightAware Transoceanic
11:28AM 53.8639 -32.0810 83° East 493 567 41,000  Level FlightAware Transoceanic
11:29AM 53.8808 -31.8505 83° East 493 567 41,000  Level FlightAware Transoceanic
11:30AM 53.8973 -31.6198 83° East 493 567 41,000  Level FlightAware Transoceanic
11:31AM 53.9133 -31.3889 83° East 493 567 41,000  Level FlightAware Transoceanic
11:32AM 53.9288 -31.1578 84° East 493 567 41,000  Level FlightAware Transoceanic
11:33AM 53.9440 -30.9266 84° East 493 567 41,000  Level FlightAware Transoceanic
11:34AM 53.9586 -30.6952 84° East 493 567 41,000  Level FlightAware Transoceanic
11:35AM 53.9729 -30.4636 84° East 493 567 41,000  Level FlightAware Transoceanic
11:36AM 53.9867 -30.2319 84° East 493 567 41,000  Level FlightAware Transoceanic
11:37AM 53.9919 -30.0015 88° East  Level Estimated
11:38AM 53.9967 -29.7710 88° East  Level Estimated
11:39AM 54.0011 -29.5405 88° East  Level Estimated
11:40AM 54.0051 -29.3099 88° East  Level Estimated
11:40AM 54.0000 -30.0000 86° East 503 579 41,000  Level ETMS Enhanced Traffic Management System
11:41AM 54.0085 -29.0793 88° East  Level Estimated
11:42AM 54.0116 -28.8487 89° East  Level Estimated
11:43AM 54.0142 -28.6180 89° East  Level Estimated
11:44AM 54.0164 -28.3873 89° East  Level Estimated
11:45AM 54.0181 -28.1566 89° East  Level Estimated
11:46AM 54.0753 -27.6222 88° East 503 579 41,000  Level FlightAware Transoceanic
11:47AM 54.0802 -27.3840 88° East 503 579 41,000  Level FlightAware Transoceanic
11:48AM 54.0847 -27.1458 88° East 503 579 41,000  Level FlightAware Transoceanic
11:49AM 54.0887 -26.9075 88° East 503 579 41,000  Level FlightAware Transoceanic
11:50AM 54.0923 -26.6691 89° East 503 579 41,000  Level FlightAware Transoceanic
11:51AM 54.0953 -26.4308 89° East 503 579 41,000  Level FlightAware Transoceanic
11:52AM 54.0979 -26.1924 89° East 503 579 41,000  Level FlightAware Transoceanic
11:53AM 54.1000 -25.9539 89° East 503 579 41,000  Level FlightAware Transoceanic
11:54AM 54.1017 -25.7155 89° East 503 579 41,000  Level FlightAware Transoceanic
11:55AM 54.1029 -25.4770 90° East 503 579 41,000  Level FlightAware Transoceanic
11:56AM 54.1036 -25.2385 90° East 503 579 41,000  Level FlightAware Transoceanic
11:57AM 54.1038 -25.0000 90° East 503 579 41,000  Level FlightAware Transoceanic
11:58AM 54.1036 -24.7615 90° East 503 579 41,000  Level FlightAware Transoceanic
11:59AM 54.1029 -24.5230 90° East 503 579 41,000  Level FlightAware Transoceanic
12:00PM 54.1017 -24.2845 91° East 503 579 41,000  Level FlightAware Transoceanic
12:01PM 54.1000 -24.0461 91° East 503 579 41,000  Level FlightAware Transoceanic
12:02PM 54.0979 -23.8076 91° East 503 579 41,000  Level FlightAware Transoceanic
12:03PM 54.0953 -23.5692 91° East 503 579 41,000  Level FlightAware Transoceanic
12:04PM 54.0923 -23.3309 91° East 503 579 41,000  Level FlightAware Transoceanic
12:05PM 54.0887 -23.0925 92° East 503 579 41,000  Level FlightAware Transoceanic
12:06PM 54.0847 -22.8542 92° East 503 579 41,000  Level FlightAware Transoceanic
12:07PM 54.0802 -22.6160 92° East 503 579 41,000  Level FlightAware Transoceanic
12:08PM 54.0753 -22.3778 92° East 503 579 41,000  Level FlightAware Transoceanic
12:09PM 54.0699 -22.1397 92° East 503 579 41,000  Level FlightAware Transoceanic
12:10PM 54.0640 -21.9016 93° East 503 579 41,000  Level FlightAware Transoceanic
12:11PM 54.0576 -21.6636 93° East 503 579 41,000  Level FlightAware Transoceanic
12:12PM 54.0508 -21.4257 93° East 503 579 41,000  Level FlightAware Transoceanic
12:13PM 54.0435 -21.1878 93° East 503 579 41,000  Level FlightAware Transoceanic
12:14PM 54.0358 -20.9501 93° East 503 579 41,000  Level FlightAware Transoceanic
12:15PM 54.0275 -20.7124 93° East 503 579 41,000  Level FlightAware Transoceanic
12:16PM 54.0188 -20.4748 94° East 503 579 41,000  Level FlightAware Transoceanic
12:17PM 54.0096 -20.2374 94° East 503 579 41,000 -60 Level FlightAware Transoceanic
12:18PM 53.9934 -20.0084 97° East  Level Estimated
12:19PM 53.9767 -19.7796 97° East  Level Estimated
12:20PM 53.9595 -19.5510 97° East  Level Estimated
12:21PM 53.9419 -19.3225 97° East  Level Estimated
12:22PM 53.9239 -19.0943 98° East  Level Estimated
12:23PM 53.9055 -18.8663 98° East  Level Estimated
12:24PM 53.8866 -18.6384 98° East  Level Estimated
12:25PM 53.8673 -18.4108 98° East  Level Estimated
12:26PM 53.8475 -18.1834 98° East  Level Estimated
12:27PM 53.8274 -17.9562 98° East  Level Estimated
12:28PM 53.8068 -17.7292 99° East  Level Estimated
12:29PM 53.7857 -17.5025 99° East  Level Estimated
12:30PM 53.7643 -17.2760 99° East  Level Estimated
12:31PM 53.7424 -17.0497 99° East  Level Estimated
12:32PM 53.7201 -16.8237 99° East  Level Estimated
12:33PM 53.6974 -16.5979 100° East  Level Estimated
12:34PM 53.6742 -16.3723 100° East  Level Estimated
12:35PM 53.6507 -16.1470 100° East  Level Estimated
12:36PM 53.6267 -15.9220 100° East  Level Estimated
12:37PM 53.6022 -15.6972 100° East  Level Estimated
12:38PM 53.5774 -15.4726 100° East  Level Estimated
12:39PM 53.5521 -15.2484 101° East  Level Estimated
12:40PM 53.5265 -15.0244 101° East  Level Estimated
12:41PM 53.5004 -14.8006 101° East  Level Estimated
12:42PM 53.4738 -14.5772 101° East  Level Estimated
12:43PM 53.4469 -14.3540 101° East  Level Estimated
12:44PM 53.4196 -14.1312 102° East  Level Estimated
12:45PM 53.3918 -13.9086 102° East  Level Estimated
12:46PM 53.3636 -13.6863 102° East  Level Estimated
12:47PM 53.3350 -13.4643 102° East  Level Estimated
12:48PM 53.3060 -13.2426 102° East  Level Estimated
12:49PM 53.2766 -13.0212 102° East  Level Estimated
12:50PM 53.2468 -12.8001 103° East  Level Estimated
12:51PM 53.2166 -12.5793 103° East  Level Estimated
12:52PM 53.1859 -12.3588 103° East  Level Estimated
12:53PM 53.1549 -12.1387 103° East  Level Estimated
12:54PM 53.1235 -11.9188 103° East  Level Estimated
12:55PM 53.0916 -11.6993 104° East  Level Estimated
12:56PM 53.0593 -11.4802 104° East  Level Estimated
12:57PM 53.0267 -11.2613 104° East  Level Estimated
12:58PM 52.9936 -11.0428 104° East  Level Estimated
12:59PM 52.9602 -10.8246 104° East  Level Estimated
01:00PM 52.9263 -10.6068 104° East  Level Estimated
01:01PM 52.8921 -10.3893 105° East  Level Estimated
01:02PM 52.8574 -10.1721 105° East  Level Estimated
01:03PM 52.8224 -9.9553 105° East  Level Estimated
01:04PM 52.7869 -9.7388 105° East  Level Estimated
01:05PM 52.7511 -9.5227 105° East  Level Estimated
01:06PM 52.7149 -9.3070 105° East  Level Estimated
01:07PM 52.6782 -9.0916 106° East  Level Estimated
01:08PM 52.6412 -8.8766 106° East  Level Estimated
01:08PM 52.9608 -8.9711 106° East 1 1 39,500  Level FlightAware UK
01:08PM 52.9469 -8.9092 110° East 1 1 39,500  Level FlightAware UK
01:08PM 52.9330 -8.8475 110° East 1 1 39,500  Level FlightAware UK
01:09PM 52.9191 -8.7859 110° East 1 1 39,500  Level FlightAware UK
01:09PM 52.9052 -8.7244 111° Southeast 1 1 39,500  Level FlightAware UK
01:09PM 52.8913 -8.6627 110° East 1 1 39,500  Level FlightAware UK
01:10PM 52.8774 -8.6013 111° Southeast 1 1 39,500  Level FlightAware UK
01:10PM 52.8632 -8.5397 111° Southeast 1 1 39,500  Level FlightAware UK
01:10PM 52.8491 -8.4784 111° Southeast 1 1 39,500  Level FlightAware UK
01:11PM 52.8349 -8.4170 111° Southeast 1 1 39,500  Level FlightAware UK
01:11PM 52.8206 -8.3549 111° Southeast 1 1 39,500  Level FlightAware UK
01:11PM 52.8062 -8.2934 111° Southeast 1 1 39,500  Level FlightAware UK
01:11PM 52.7919 -8.2318 111° Southeast 1 1 39,500  Level FlightAware UK
01:12PM 52.7777 -8.1700 111° Southeast 1 1 39,500  Level FlightAware UK
01:12PM 52.7633 -8.1084 111° Southeast 1 1 39,500  Level FlightAware UK
01:12PM 52.7489 -8.0467 111° Southeast 1 1 39,500  Level FlightAware UK
01:13PM 52.7343 -7.9849 111° Southeast 1 1 39,500  Level FlightAware UK
01:13PM 52.7197 -7.9231 111° Southeast 1 1 39,500  Level FlightAware UK
01:13PM 52.7051 -7.8611 111° Southeast 1 1 39,500  Level FlightAware UK
01:14PM 52.6905 -7.7989 111° Southeast 1 1 39,500  Level FlightAware UK
01:14PM 52.6758 -7.7368 111° Southeast 1 1 39,500  Level FlightAware UK
01:14PM 52.6609 -7.6746 112° Southeast 1 1 39,500 -840 Level FlightAware UK
01:14PM 52.6462 -7.6122 111° Southeast 1 1 39,000 -1,680 Descending FlightAware UK
01:15PM 52.6315 -7.5497 111° Southeast 1 1 38,500 -1,680 Descending FlightAware UK
01:15PM 52.6165 -7.4871 112° Southeast 1 1 38,000 -1,680 Descending FlightAware UK
01:15PM 52.6006 -7.4232 112° Southeast 1 1 37,500 -1,680 Descending FlightAware UK
01:16PM 52.5848 -7.3595 112° Southeast 490 564 37,000 -1,680 Descending FlightAware UK
01:16PM 52.5694 -7.2957 112° Southeast 492 566 36,500 -1,680 Descending FlightAware UK
01:16PM 52.5540 -7.2314 112° Southeast 500 575 36,000 -1,680 Descending FlightAware UK
01:17PM 52.5387 -7.1668 111° Southeast 500 575 35,500 -1,680 Descending FlightAware UK
01:17PM 52.5232 -7.1017 111° Southeast 502 578 35,000 -1,500 Descending FlightAware UK
01:17PM 52.5075 -7.0379 112° Southeast 504 580 34,600 -1,500 Descending FlightAware UK
01:17PM 52.4910 -6.9746 113° Southeast 500 575 34,100 -1,680 Descending FlightAware UK
01:18PM 52.4749 -6.9113 113° Southeast 496 571 33,600 -1,020 Descending FlightAware UK
01:18PM 52.4594 -6.8480 112° Southeast 490 564 33,500 -180 Descending FlightAware UK
01:18PM 52.4444 -6.7853 111° Southeast 482 555 33,500  Level FlightAware UK
01:19PM 52.4299 -6.7251 112° Southeast 476 548 33,500  Level FlightAware UK
01:19PM 52.4150 -6.6653 112° Southeast 470 541 33,500  Level FlightAware UK
01:19PM 52.3998 -6.6057 113° Southeast 472 543 33,500  Level FlightAware UK
01:20PM 52.3846 -6.5459 113° Southeast 474 545 33,500  Level FlightAware UK
01:20PM 52.3694 -6.4855 112° Southeast 476 548 33,500  Level FlightAware UK
01:20PM 52.3541 -6.4249 112° Southeast 480 552 33,500  Level FlightAware UK
01:20PM 52.3389 -6.3643 112° Southeast 482 555 33,500  Level FlightAware UK
01:21PM 52.3236 -6.3036 112° Southeast 482 555 33,500  Level FlightAware UK
01:21PM 52.3082 -6.2427 112° Southeast 482 555 33,500  Level FlightAware UK
01:21PM 52.2925 -6.1816 113° Southeast 484 557 33,500  Level FlightAware UK
01:22PM 52.2785 -6.1186 110° East 484 557 33,500  Level FlightAware UK
01:22PM 52.2675 -6.0542 105° East 486 559 33,500 -360 Level FlightAware UK
01:22PM 52.2564 -5.9898 106° East 486 559 33,300 -1,200 Descending FlightAware UK
01:23PM 52.2451 -5.9248 106° East 488 562 32,800 -1,680 Descending FlightAware UK
01:23PM 52.2336 -5.8607 106° East 488 562 32,300 -1,500 Descending FlightAware UK
01:23PM 52.2218 -5.7968 107° East 486 559 31,900 -1,500 Descending FlightAware UK
01:23PM 52.2100 -5.7331 107° East 482 555 31,400 -1,680 Descending FlightAware UK
01:24PM 52.1981 -5.6695 107° East 484 557 30,900 -1,860 Descending FlightAware UK
01:24PM 52.1862 -5.6058 107° East 484 557 30,300 -1,860 Descending FlightAware UK
01:24PM 52.1745 -5.5420 107° East 486 559 29,800 -1,860 Descending FlightAware UK
01:25PM 52.1624 -5.4783 107° East 486 559 29,200 -1,860 Descending FlightAware UK
01:25PM 52.1505 -5.4146 107° East 488 562 28,700 -1,680 Descending FlightAware UK
01:25PM 52.1384 -5.3510 107° East 486 559 28,200 -2,040 Descending FlightAware UK
01:26PM 52.1261 -5.2875 107° East 486 559 27,500 -2,520 Descending FlightAware UK
01:26PM 52.1139 -5.2242 107° East 484 557 26,700 -2,520 Descending FlightAware UK
01:26PM 52.1016 -5.1611 108° East 482 555 26,000 -2,520 Descending FlightAware UK
01:26PM 52.0893 -5.0981 108° East 480 552 25,200 -2,520 Descending FlightAware UK
01:27PM 52.0770 -5.0354 108° East 478 550 24,500 -2,520 Descending FlightAware UK
01:27PM 52.0650 -4.9734 107° East 480 552 23,700 -2,700 Descending FlightAware UK
01:27PM 52.0535 -4.9127 107° East 474 545 22,900 -2,520 Descending FlightAware UK
01:28PM 52.0413 -4.8518 108° East 470 541 22,200 -2,520 Descending FlightAware UK
01:28PM 52.0289 -4.7905 108° East 468 539 21,400 -2,520 Descending FlightAware UK
01:28PM 52.0170 -4.7305 108° East 460 529 20,700 -2,520 Descending FlightAware UK
01:29PM 52.0055 -4.6713 107° East 450 518 19,900 -2,520 Descending FlightAware UK
01:29PM 51.9946 -4.6140 107° East 442 509 19,200 -2,520 Descending FlightAware UK
01:29PM 51.9833 -4.5570 108° East 438 504 18,400 -2,520 Descending FlightAware UK
01:29PM 51.9721 -4.5008 108° East 432 497 17,700 -1,500 Descending FlightAware UK
01:30PM 51.9608 -4.4459 108° East 414 476 17,500 -360 Descending FlightAware UK
01:30PM 51.9501 -4.3932 108° East 406 467 17,500 -360 Level FlightAware UK
01:30PM 51.9395 -4.3407 108° East 404 465 17,300 -1,680 Descending FlightAware UK
01:31PM 51.9291 -4.2892 108° East 398 458 16,500 -2,460 Descending FlightAware UK
01:31PM 51.9161 -4.2232 108° East 380 437 15,600 -1,440 Descending FlightAware UK
01:31PM 51.9070 -4.1751 107° East 374 430 15,500 -180 Descending FlightAware UK
01:32PM 51.8972 -4.1244 107° East 394 453 15,500  Level FlightAware UK
01:32PM 51.8867 -4.0709 108° East 410 472 15,500  Level FlightAware UK
01:32PM 51.8761 -4.0168 108° East 414 476 15,500  Level FlightAware UK
01:33PM 51.8619 -3.9442 108° East 418 481 15,500 -420 Level FlightAware UK
01:33PM 51.8511 -3.8892 108° East 416 479 15,200 -1,500 Descending FlightAware UK
01:33PM 51.8404 -3.8349 108° East 420 483 14,600 -2,040 Descending FlightAware UK
01:34PM 51.8296 -3.7802 108° East 418 481 14,000 -1,860 Descending FlightAware UK
01:34PM 51.8197 -3.7305 108° East 384 442 13,500 -1,860 Descending FlightAware UK
01:34PM 51.8069 -3.6659 108° East 372 428 12,700 -1,860 Descending FlightAware UK
01:35PM 51.7973 -3.6181 108° East 360 414 12,200 -1,860 Descending FlightAware UK
01:35PM 51.7875 -3.5734 110° East 346 398 11,600 -2,040 Descending FlightAware UK
01:35PM 51.7762 -3.5319 114° Southeast 336 387 11,000 -2,040 Descending FlightAware UK
01:35PM 51.7659 -3.4913 112° Southeast 322 371 10,400 -1,920 Descending FlightAware UK
01:36PM 51.7494 -3.4266 112° Southeast 314 361 9,500 -1,800 Descending FlightAware UK
01:36PM 51.7399 -3.3888 112° Southeast 302 348 9,000 -1,680 Descending FlightAware UK
01:37PM 51.7306 -3.3528 113° Southeast 294 338 8,500 -1,500 Descending FlightAware UK
01:37PM 51.7215 -3.3178 113° Southeast 288 331 8,100 -1,440 Descending FlightAware UK
01:37PM 51.7094 -3.2722 113° Southeast 276 318 7,500 -900 Descending FlightAware UK
01:38PM 51.7006 -3.2379 113° Southeast 280 322 7,500 -180 Level FlightAware UK
01:38PM 51.6915 -3.2028 113° Southeast 276 318 7,400 -1,380 Descending FlightAware UK
01:38PM 51.6827 -3.1685 113° Southeast 276 318 6,700 -1,500 Descending FlightAware UK
01:38PM 51.6739 -3.1346 112° Southeast 268 308 6,500 -540 Descending FlightAware UK
01:39PM 51.6650 -3.1009 113° Southeast 274 315 6,400  Descending FlightAware UK
01:39PM 51.6515 -3.0710 126° Southeast 276 318 6,500 120 Climbing FlightAware UK
01:39PM 51.6389 -3.0398 123° Southeast 276 318 6,500  Level FlightAware UK
01:40PM 51.6263 -3.0089 123° Southeast 274 315 6,500  Level FlightAware UK
01:40PM 51.6097 -2.9677 123° Southeast 278 320 6,500 -360 Level FlightAware UK
01:41PM 51.5884 -2.9150 123° Southeast 274 315 6,200 -1,260 Descending FlightAware UK
01:41PM 51.5757 -2.8839 123° Southeast 276 318 5,500 -2,220 Descending FlightAware UK
01:41PM 51.5632 -2.8529 123° Southeast 276 318 4,900 -1,140 Descending FlightAware UK
01:42PM 51.5307 -2.7742 124° Southeast 266 306 4,300 -600 Descending FlightAware UK
01:42PM 51.5186 -2.7446 123° Southeast 268 308 4,300  Level FlightAware UK
01:43PM 51.5066 -2.7150 123° Southeast 268 308 4,300 -180 Level FlightAware UK
01:43PM 51.4924 -2.6740 119° Southeast 262 302 4,200 -900 Descending FlightAware UK
01:43PM 51.4955 -2.6394 82° East 258 297 3,700 -1,020 Descending FlightAware UK
01:44PM 51.4987 -2.5712 86° East 250 288 3,300 -360 Descending FlightAware UK
01:44PM 51.5031 -2.5039 84° East 252 290 3,300  Level FlightAware UK
01:45PM 51.5055 -2.4693 84° East 260 299 3,300  Level FlightAware UK
01:45PM 51.5076 -2.4347 85° East 262 302 3,300  Level FlightAware UK
01:45PM 51.5106 -2.3891 84° East 256 295 3,300  Level FlightAware UK
01:46PM 51.5026 -2.3058 99° East 250 288 3,300  Level FlightAware UK
01:47PM 51.4836 -2.2974 165° South 238 274 3,300  Level FlightAware UK
01:47PM 51.4685 -2.3109 209° Southwest 224 258 3,300 -360 Level FlightAware UK
01:47PM 51.4424 -2.3519 224° Southwest 218 251 3,000 -1,020 Descending FlightAware UK
01:48PM 51.4311 -2.3741 231° Southwest 220 253 2,400 -1,080 Descending FlightAware UK
01:48PM 51.4164 -2.4041 232° Southwest 212 244 2,300 -720 Descending FlightAware UK
01:49PM 51.3968 -2.4439 232° Southwest 196 226 1,700 -1,260 Descending FlightAware UK
01:49PM 51.3929 -2.4691 256° West 196 226 1,200 -1,680 Descending FlightAware UK
01:49PM 51.3895 -2.4951 258° West 194 223 700 -720 Descending FlightAware UK
01:50PM 51.3880 -2.5197 264° West 192 221 800 120 Climbing FlightAware UK
01:50PM 51.3874 -2.5531 268° West 194 223 800 -480 Level FlightAware UK
01:51PM 51.3871 -2.5958 269° West 180 207 400 -900 Descending FlightAware UK
01:51PM 51.3868 -2.6186 269° West 154 177 100 -1,020 Descending FlightAware UK
01:55PM 51.3827 -2.7191 266° West  Level Estimated